createdAt,value
2019-05-12T01:52:29.518Z,99.90
2019-05-12T01:57:18.676Z,99.90
2019-05-12T02:02:02.430Z,99.90
2019-05-12T02:06:48.512Z,99.90
2019-05-12T02:11:33.534Z,99.90
2019-05-12T02:16:19.014Z,99.90
2019-05-12T02:21:04.008Z,99.90
2019-05-12T02:25:48.770Z,99.90
2019-05-12T02:30:34.169Z,99.90
2019-05-12T02:35:19.263Z,99.90
2019-05-12T02:40:04.768Z,99.90
2019-05-12T02:44:50.140Z,99.90
2019-05-12T02:49:35.445Z,99.90
2019-05-12T02:54:25.003Z,99.90
2019-05-12T02:59:09.856Z,99.90
2019-05-12T03:03:56.455Z,99.90
2019-05-12T03:08:44.691Z,99.90
2019-05-12T03:13:28.162Z,99.90
2019-05-12T03:18:14.614Z,99.90
2019-05-12T03:23:00.066Z,99.90
2019-05-12T03:27:44.928Z,99.90
2019-05-12T03:32:29.709Z,99.90
2019-05-12T03:37:17.893Z,99.90
2019-05-12T03:42:05.163Z,99.90
2019-05-12T03:46:50.340Z,99.90
2019-05-12T03:51:36.743Z,99.90
2019-05-12T03:56:25.521Z,99.90
2019-05-12T04:01:08.726Z,99.90
2019-05-12T04:05:55.307Z,99.90
2019-05-12T04:10:40.719Z,99.90
2019-05-12T04:15:25.828Z,99.90
2019-05-12T04:20:10.850Z,99.90
2019-05-12T04:24:55.524Z,99.90
2019-05-12T04:29:44.151Z,99.90
2019-05-12T04:34:29.256Z,99.90
2019-05-12T04:39:14.874Z,99.90
2019-05-12T04:44:00.052Z,99.90
2019-05-12T04:48:46.361Z,99.90
2019-05-12T04:53:31.279Z,99.90
2019-05-12T04:58:16.340Z,99.90
2019-05-12T05:03:01.320Z,99.90
2019-05-12T05:07:46.106Z,99.90
2019-05-12T05:12:30.856Z,99.90
2019-05-12T05:17:15.588Z,99.90
2019-05-12T05:22:00.502Z,99.90
2019-05-12T05:26:49.551Z,99.90
2019-05-12T05:31:36.940Z,99.90
2019-05-12T05:36:21.838Z,99.90
2019-05-12T05:41:10.482Z,99.90
2019-05-12T05:45:56.104Z,99.90
2019-05-12T05:50:39.553Z,99.90
2019-05-12T05:55:24.750Z,99.90
2019-05-12T06:00:17.550Z,99.90
2019-05-12T06:04:58.226Z,99.90
2019-05-12T06:09:46.893Z,99.90
2019-05-12T06:14:34.457Z,99.90
2019-05-12T06:19:19.764Z,99.90
2019-05-12T06:24:08.640Z,99.90
2019-05-12T06:28:51.141Z,99.90
2019-05-12T06:33:36.469Z,99.90
2019-05-12T06:38:24.456Z,99.90
2019-05-12T06:43:09.243Z,99.90
2019-05-12T06:47:56.153Z,99.90
2019-05-12T06:52:48.895Z,99.90
2019-05-12T06:57:30.952Z,99.90
2019-05-12T07:02:17.941Z,99.90
2019-05-12T07:07:04.894Z,99.90
2019-05-12T07:11:58.865Z,99.90
2019-05-12T07:16:36.287Z,99.90
2019-05-12T07:21:24.182Z,99.90
2019-05-12T07:26:13.981Z,99.90
2019-05-12T07:30:54.639Z,99.90
2019-05-12T07:35:44.139Z,99.90
2019-05-12T07:40:30.552Z,99.90
2019-05-12T07:45:20.503Z,99.90
2019-05-12T07:50:04.512Z,99.90
2019-05-12T07:54:52.595Z,99.90
2019-05-12T07:59:40.926Z,99.90
2019-05-12T08:04:23.922Z,99.90
2019-05-12T08:09:09.751Z,99.90
2019-05-12T08:13:54.592Z,99.90
2019-05-12T08:18:44.601Z,99.90
2019-05-12T08:23:37.917Z,99.90
2019-05-12T08:28:28.135Z,99.90
2019-05-12T08:33:10.142Z,99.90
2019-05-12T08:37:55.031Z,99.90
2019-05-12T08:42:39.667Z,99.90
2019-05-12T08:47:29.014Z,99.90
2019-05-12T08:52:10.657Z,99.90
2019-05-12T08:56:59.316Z,99.90
2019-05-12T09:01:43.764Z,99.90
2019-05-12T09:06:29.043Z,99.90
2019-05-12T09:11:14.184Z,99.90
2019-05-12T09:15:59.118Z,99.90
2019-05-12T09:20:48.745Z,99.90
2019-05-12T09:25:30.378Z,99.90
2019-05-12T09:30:17.964Z,99.90
2019-05-12T09:35:03.959Z,99.90
2019-05-12T09:39:51.281Z,99.90
2019-05-12T09:44:35.747Z,99.90
2019-05-12T09:49:25.094Z,99.90
2019-05-12T09:54:07.003Z,99.90
2019-05-12T09:58:59.056Z,99.90
2019-05-12T10:03:41.083Z,99.90
2019-05-12T10:08:29.253Z,99.90
2019-05-12T10:13:13.885Z,99.90
2019-05-12T10:18:00.274Z,99.90
2019-05-12T10:22:45.982Z,99.90
2019-05-12T10:27:32.497Z,99.90
2019-05-12T10:32:17.135Z,99.90
2019-05-12T10:37:05.507Z,99.90
2019-05-12T10:41:50.498Z,99.90
2019-05-12T10:46:35.711Z,99.90
2019-05-12T10:51:20.531Z,99.90
2019-05-12T10:56:05.399Z,99.90
2019-05-12T11:00:50.242Z,99.90
2019-05-12T11:05:35.056Z,99.90
2019-05-12T11:10:20.298Z,99.90
2019-05-12T11:15:08.492Z,99.90
2019-05-12T11:19:54.167Z,99.90
2019-05-12T11:24:39.328Z,99.90
2019-05-12T11:29:24.355Z,99.90
2019-05-12T11:34:09.052Z,99.90
2019-05-12T11:38:54.214Z,99.90
2019-05-12T11:43:38.977Z,99.90
2019-05-12T11:48:23.879Z,99.90
2019-05-12T11:53:08.736Z,99.90
2019-05-12T11:57:54.440Z,99.90
2019-05-12T12:02:39.417Z,99.90
2019-05-12T12:07:24.299Z,99.90
2019-05-12T12:12:08.957Z,99.90
2019-05-12T12:16:54.456Z,99.20
2019-05-12T12:21:40.444Z,99.30
2019-05-12T12:26:30.295Z,96.50
2019-05-12T12:31:13.841Z,98.40
2019-05-12T12:36:00.659Z,95.30
2019-05-12T12:40:48.173Z,94.20
2019-05-12T12:45:52.110Z,96.10
2019-05-12T12:50:36.912Z,93.40
2019-05-12T12:55:23.446Z,95.50
2019-05-12T13:00:08.568Z,90.30
2019-05-12T13:04:53.863Z,91.50
2019-05-12T13:09:38.673Z,90.40
2019-05-12T13:14:28.724Z,92.10
2019-05-12T13:19:15.099Z,91.10
2019-05-12T13:23:56.359Z,90.70
2019-05-12T13:28:45.451Z,86.70
2019-05-12T13:33:27.859Z,86.30
2019-05-12T13:38:14.471Z,81.90
2019-05-12T13:42:59.371Z,75.70
2019-05-12T13:47:44.539Z,77.20
2019-05-12T13:52:30.243Z,78.80
2019-05-12T13:57:15.664Z,75.80
2019-05-12T14:02:00.351Z,71.90
2019-05-12T14:06:47.816Z,72.50
2019-05-12T14:11:34.508Z,70.70
2019-05-12T14:16:19.028Z,71.60
2019-05-12T14:21:04.240Z,72.80
2019-05-12T14:25:49.349Z,66.70
2019-05-12T14:30:34.434Z,73.40
2019-05-12T14:35:19.246Z,68.10
2019-05-12T14:40:04.495Z,65.90
2019-05-12T14:44:49.900Z,64.80
2019-05-12T14:49:34.868Z,68.20
2019-05-12T14:54:20.548Z,66.50
2019-05-12T14:59:05.521Z,70.70
2019-05-12T15:03:50.390Z,67.10
2019-05-12T15:08:39.717Z,69.70
2019-05-12T15:13:24.049Z,67.00
2019-05-12T15:18:11.093Z,67.60
2019-05-12T15:22:55.484Z,68.90
2019-05-12T15:27:45.349Z,66.80
2019-05-12T15:32:27.567Z,67.10
2019-05-12T15:37:13.034Z,66.20
2019-05-12T15:41:58.737Z,68.00
2019-05-12T15:46:46.642Z,68.60
2019-05-12T15:51:35.465Z,66.20
2019-05-12T15:56:23.259Z,70.00
2019-05-12T16:01:04.798Z,68.90
2019-05-12T16:05:50.038Z,73.50
2019-05-12T16:10:36.486Z,68.70
2019-05-12T16:15:22.686Z,67.80
2019-05-12T16:20:07.972Z,69.70
2019-05-12T16:24:53.270Z,68.50
2019-05-12T16:29:38.847Z,69.30
2019-05-12T16:34:24.774Z,68.80
2019-05-12T16:39:09.904Z,70.80
2019-05-12T16:43:55.559Z,76.00
2019-05-12T16:48:42.061Z,74.20
2019-05-12T16:53:28.295Z,72.90
2019-05-12T16:58:13.955Z,74.80
2019-05-12T17:02:59.205Z,75.50
2019-05-12T17:07:44.510Z,77.10
2019-05-12T17:12:32.052Z,77.30
2019-05-12T17:17:16.357Z,76.90
2019-05-12T17:22:01.399Z,77.70
2019-05-12T17:26:46.342Z,79.60
2019-05-12T17:31:33.865Z,78.00
2019-05-12T17:36:19.077Z,79.10
2019-05-12T17:41:03.945Z,79.30
2019-05-12T17:45:50.515Z,81.30
2019-05-12T17:50:35.287Z,82.90
2019-05-12T17:55:20.411Z,85.20
2019-05-12T18:00:10.429Z,89.30
2019-05-12T18:04:53.510Z,86.80
2019-05-12T18:09:39.063Z,89.40
2019-05-12T18:14:27.613Z,89.10
2019-05-12T18:19:15.369Z,90.40
2019-05-12T18:24:00.445Z,90.10
2019-05-12T18:28:45.341Z,90.90
2019-05-12T18:33:34.065Z,91.40
2019-05-12T18:38:21.841Z,90.50
2019-05-12T18:43:04.001Z,91.00
2019-05-12T18:47:49.480Z,91.50
2019-05-12T18:52:42.635Z,90.90
2019-05-12T18:57:23.871Z,91.50
2019-05-12T19:02:14.567Z,91.20
2019-05-12T19:06:55.859Z,91.30
2019-05-12T19:11:42.272Z,91.90
2019-05-12T19:16:27.991Z,92.40
2019-05-12T19:21:16.680Z,92.70
2019-05-12T19:26:00.083Z,92.60
2019-05-12T19:30:45.098Z,93.10
2019-05-12T19:35:31.276Z,93.10
2019-05-12T19:40:17.718Z,92.90
2019-05-12T19:45:07.001Z,93.10
2019-05-12T19:49:50.677Z,93.60
2019-05-12T19:54:36.934Z,93.10
2019-05-12T19:59:23.604Z,93.40
2019-05-12T20:04:08.550Z,93.30
2019-05-12T20:09:05.640Z,93.10
2019-05-12T20:13:40.188Z,93.30
2019-05-12T20:18:25.250Z,94.00
2019-05-12T20:23:10.036Z,93.30
2019-05-12T20:28:04.317Z,94.80
2019-05-12T20:32:43.525Z,94.00
2019-05-12T20:37:28.255Z,94.90
2019-05-12T20:42:14.137Z,94.60
2019-05-12T20:47:01.473Z,95.30
2019-05-12T20:51:48.215Z,95.00
2019-05-12T20:56:34.320Z,94.50
2019-05-12T21:01:24.876Z,93.70
2019-05-12T21:06:06.514Z,93.60
2019-05-12T21:10:53.955Z,93.90
2019-05-12T21:15:42.797Z,93.60
2019-05-12T21:20:24.474Z,93.40
2019-05-12T21:25:11.144Z,91.90
2019-05-12T21:30:00.547Z,92.40
2019-05-12T21:34:43.771Z,92.50
2019-05-12T21:39:29.144Z,92.60
2019-05-12T21:44:14.477Z,92.40
2019-05-12T21:49:09.243Z,92.70
2019-05-12T21:53:50.611Z,92.10
2019-05-12T21:58:35.306Z,92.10
2019-05-12T22:03:20.062Z,92.70
2019-05-12T22:08:12.408Z,92.60
2019-05-12T22:12:53.675Z,93.10
2019-05-12T22:17:56.206Z,93.60
2019-05-12T22:22:43.042Z,93.50
2019-05-12T22:27:30.843Z,93.30
2019-05-12T22:32:18.997Z,93.90
2019-05-12T22:37:01.009Z,94.20
2019-05-12T22:41:45.930Z,94.10
2019-05-12T22:46:33.014Z,93.70
2019-05-12T22:51:23.490Z,94.00
2019-05-12T22:56:12.233Z,94.90
2019-05-12T23:00:51.272Z,94.60
2019-05-12T23:05:37.765Z,94.70
2019-05-12T23:10:22.942Z,94.60
2019-05-12T23:15:08.160Z,94.70
2019-05-12T23:19:55.642Z,94.80
2019-05-12T23:24:40.788Z,95.30
2019-05-12T23:29:30.719Z,95.50
2019-05-12T23:34:14.556Z,96.60
2019-05-12T23:39:00.865Z,97.20
2019-05-12T23:43:47.248Z,97.00
2019-05-12T23:48:33.555Z,98.10
2019-05-12T23:53:18.865Z,97.80
2019-05-12T23:58:04.374Z,98.80
